Time;durP1;ratioP1;P1;durP2;ratioP2;P2;SDS_P1;SDS_P2;PMS_P1;PMS_P2;Temp;Humidity;BMP_temperature;BMP_pressure;BME280_temperature;BME280_humidity;BME280_pressure;Samples;Min_cycle;Max_cycle;Signal;HPM_P1;HPM_P2
2023/10/04 00:00:47;;;;;;;11.82;6.53;;;;;;;;;;2068921;28;20030;-78
2023/10/04 00:02:09;;;;;;;18.38;6.32;;;;;;;;;;2066966;28;20030;-78
2023/10/04 00:03:30;;;;;;;17.90;6.90;;;;;;;;;;2072747;28;20026;-78
2023/10/04 00:04:51;;;;;;;10.63;5.90;;;;;;;;;;2066683;28;20042;-77
2023/10/04 00:06:12;;;;;;;14.07;6.07;;;;;;;;;;2069184;28;20529;-78
2023/10/04 00:07:33;;;;;;;16.08;6.80;;;;;;;;;;2067195;28;20419;-75
2023/10/04 00:08:54;;;;;;;13.65;5.97;;;;;;;;;;2063281;28;20685;-78
2023/10/04 00:10:16;;;;;;;16.70;7.95;;;;;;;;;;2065015;28;20041;-77
2023/10/04 00:11:37;;;;;;;16.52;6.78;;;;;;;;;;2063148;28;20041;-76
2023/10/04 00:12:57;;;;;;;11.70;6.57;;;;;;;;;;2081055;28;20029;-78
2023/10/04 00:14:18;;;;;;;14.45;7.03;;;;;;;;;;2075010;28;20080;-78
2023/10/04 00:15:39;;;;;;;14.75;7.28;;;;;;;;;;2067063;28;20444;-77
2023/10/04 00:17:00;;;;;;;14.10;7.13;;;;;;;;;;2078010;28;20024;-76
2023/10/04 00:18:21;;;;;;;19.30;7.32;;;;;;;;;;2071055;28;20479;-77
2023/10/04 00:19:42;;;;;;;18.92;6.80;;;;;;;;;;2086751;28;20029;-78
2023/10/04 00:21:06;;;;;;;15.43;6.88;;;;;;;;;;2084836;28;20034;-79
2023/10/04 00:22:27;;;;;;;13.23;6.40;;;;;;;;;;2078194;28;20393;-75
2023/10/04 00:23:48;;;;;;;14.57;6.95;;;;;;;;;;2073311;28;20048;-68
2023/10/04 00:25:11;;;;;;;15.23;6.38;;;;;;;;;;2074574;28;20481;-69
2023/10/04 00:26:32;;;;;;;12.48;6.32;;;;;;;;;;2076324;28;20037;-68
2023/10/04 00:27:56;;;;;;;11.60;5.53;;;;;;;;;;2086709;28;20377;-69
2023/10/04 00:29:18;;;;;;;12.85;7.00;;;;;;;;;;2068990;28;20042;-69
2023/10/04 00:30:38;;;;;;;13.73;6.85;;;;;;;;;;2062549;28;20030;-68
2023/10/04 00:31:59;;;;;;;15.82;6.43;;;;;;;;;;2066085;28;20045;-71
2023/10/04 00:33:21;;;;;;;12.43;7.20;;;;;;;;;;2064817;28;20125;-68
2023/10/04 00:34:42;;;;;;;13.43;6.43;;;;;;;;;;2065105;28;20075;-68
2023/10/04 00:36:06;;;;;;;15.23;7.57;;;;;;;;;;2072752;28;20033;-68
2023/10/04 00:37:27;;;;;;;15.80;6.47;;;;;;;;;;2063834;28;20050;-68
2023/10/04 00:38:48;;;;;;;17.17;6.65;;;;;;;;;;2063952;28;20038;-68
2023/10/04 00:40:12;;;;;;;11.45;5.90;;;;;;;;;;2072732;28;20397;-69
2023/10/04 00:41:34;;;;;;;14.90;6.45;;;;;;;;;;2059130;28;20027;-68
2023/10/04 00:42:56;;;;;;;10.30;5.15;;;;;;;;;;2079791;28;20488;-68
2023/10/04 00:44:17;;;;;;;12.60;6.15;;;;;;;;;;2079202;28;20074;-68
2023/10/04 00:45:38;;;;;;;15.52;6.68;;;;;;;;;;2077614;28;20417;-69
2023/10/04 00:46:59;;;;;;;9.63;6.03;;;;;;;;;;2063013;28;20026;-69
2023/10/04 00:48:24;;;;;;;13.02;7.40;;;;;;;;;;2062022;28;20034;-69
2023/10/04 00:49:47;;;;;;;14.40;6.10;;;;;;;;;;2076418;28;20025;-70
2023/10/04 00:51:08;;;;;;;14.15;6.68;;;;;;;;;;2069972;28;20038;-69
2023/10/04 00:52:30;;;;;;;18.75;8.20;;;;;;;;;;2070370;28;20501;-68
2023/10/04 00:53:53;;;;;;;14.60;7.13;;;;;;;;;;2067036;28;20054;-69
2023/10/04 00:55:16;;;;;;;16.30;7.18;;;;;;;;;;2060264;28;20041;-69
2023/10/04 00:56:38;;;;;;;14.32;5.78;;;;;;;;;;2056051;28;20418;-69
2023/10/04 00:57:59;;;;;;;14.07;6.90;;;;;;;;;;2077994;28;20454;-70
2023/10/04 00:59:20;;;;;;;11.65;6.13;;;;;;;;;;2069582;28;20034;-69
2023/10/04 01:00:42;;;;;;;15.52;6.95;;;;;;;;;;2063546;28;20023;-69
2023/10/04 01:02:03;;;;;;;22.05;7.30;;;;;;;;;;2062316;28;20042;-70
2023/10/04 01:03:28;;;;;;;14.75;6.90;;;;;;;;;;2064666;28;20054;-70
2023/10/04 01:04:48;;;;;;;17.17;5.85;;;;;;;;;;2063477;28;20310;-69
2023/10/04 01:06:09;;;;;;;13.60;6.22;;;;;;;;;;2063955;28;20030;-70
2023/10/04 01:07:31;;;;;;;14.40;5.68;;;;;;;;;;2072236;28;20050;-69
2023/10/04 01:08:52;;;;;;;17.13;8.25;;;;;;;;;;2078281;28;20084;-71
2023/10/04 01:10:17;;;;;;;18.60;7.85;;;;;;;;;;2070594;28;20042;-70
2023/10/04 01:11:44;;;;;;;16.75;7.25;;;;;;;;;;2066800;28;20034;-70
2023/10/04 01:13:09;;;;;;;18.95;6.60;;;;;;;;;;2066018;28;20034;-70
2023/10/04 01:14:37;;;;;;;13.48;7.68;;;;;;;;;;2064161;28;20035;-71
2023/10/04 01:15:59;;;;;;;15.00;6.90;;;;;;;;;;2068206;28;20026;-70
2023/10/04 01:17:20;;;;;;;14.00;6.38;;;;;;;;;;2067467;28;20034;-69
2023/10/04 01:18:42;;;;;;;12.68;5.93;;;;;;;;;;2066102;28;20034;-70
2023/10/04 01:20:09;;;;;;;14.75;7.32;;;;;;;;;;2068200;28;20551;-70
2023/10/04 01:21:31;;;;;;;16.75;6.35;;;;;;;;;;2067524;28;20045;-70
2023/10/04 01:22:52;;;;;;;15.68;6.50;;;;;;;;;;2066485;28;20022;-69
2023/10/04 01:24:13;;;;;;;18.30;7.72;;;;;;;;;;2064610;28;20030;-69
2023/10/04 01:25:34;;;;;;;13.30;6.85;;;;;;;;;;2062715;28;20026;-71
2023/10/04 01:26:56;;;;;;;11.75;6.50;;;;;;;;;;2068283;28;20782;-70
2023/10/04 01:28:17;;;;;;;;;;;;;;;;;;2065770;28;20478;-70
2023/10/04 01:29:38;;;;;;;15.48;7.15;;;;;;;;;;2081272;28;20027;-70
2023/10/04 01:30:59;;;;;;;15.50;7.55;;;;;;;;;;2068918;28;20030;-70
2023/10/04 01:32:22;;;;;;;13.40;6.20;;;;;;;;;;2072294;28;20034;-70
2023/10/04 01:33:43;;;;;;;23.00;7.18;;;;;;;;;;2079204;28;20116;-69
2023/10/04 01:35:08;;;;;;;22.77;8.13;;;;;;;;;;2067560;28;20378;-70
2023/10/04 01:36:32;;;;;;;16.42;7.60;;;;;;;;;;2074047;28;20042;-69
2023/10/04 01:37:53;;;;;;;17.98;6.68;;;;;;;;;;2063391;28;20142;-70
2023/10/04 01:39:18;;;;;;;13.55;6.82;;;;;;;;;;2067994;28;20069;-68
2023/10/04 01:40:39;;;;;;;14.10;6.43;;;;;;;;;;2084619;28;20400;-69
2023/10/04 01:42:00;;;;;;;15.65;6.75;;;;;;;;;;2074854;28;20037;-69
2023/10/04 01:43:24;;;;;;;14.57;6.43;;;;;;;;;;2079268;28;20033;-68
2023/10/04 01:44:45;;;;;;;14.52;6.25;;;;;;;;;;2072239;28;20022;-69
2023/10/04 01:46:06;;;;;;;14.30;6.32;;;;;;;;;;2079143;28;20517;-69
2023/10/04 01:47:26;;;;;;;16.83;6.25;;;;;;;;;;2082001;28;20029;-68
2023/10/04 01:48:49;;;;;;;14.77;6.53;;;;;;;;;;2073907;28;20042;-69
2023/10/04 01:50:10;;;;;;;;;;;;;;;;;;2072542;28;20033;-69
2023/10/04 01:51:32;;;;;;;13.70;7.25;;;;;;;;;;2072170;28;19954;-69
2023/10/04 01:52:53;;;;;;;14.02;6.20;;;;;;;;;;2072428;28;20088;-69
2023/10/04 01:54:15;;;;;;;12.95;6.40;;;;;;;;;;2072862;28;20034;-70
2023/10/04 01:55:36;;;;;;;10.90;5.22;;;;;;;;;;2072689;28;20037;-69
2023/10/04 01:56:57;;;;;;;13.52;6.20;;;;;;;;;;2056604;28;20494;-70
2023/10/04 01:58:23;;;;;;;10.13;5.60;;;;;;;;;;2072614;28;20048;-70
2023/10/04 01:59:43;;;;;;;11.38;6.63;;;;;;;;;;2073079;28;20041;-69
2023/10/04 02:01:06;;;;;;;16.73;6.28;;;;;;;;;;2068191;28;20486;-69
2023/10/04 02:02:27;;;;;;;16.08;6.47;;;;;;;;;;2071306;28;20045;-72
2023/10/04 02:03:48;;;;;;;14.45;6.57;;;;;;;;;;2073575;28;20099;-70
2023/10/04 02:05:17;;;;;;;19.13;6.20;;;;;;;;;;2062916;28;20579;-70
2023/10/04 02:06:38;;;;;;;16.92;7.82;;;;;;;;;;2082089;28;20523;-69
2023/10/04 02:07:59;;;;;;;17.85;7.13;;;;;;;;;;2064967;28;20094;-71
2023/10/04 02:09:20;;;;;;;17.83;7.53;;;;;;;;;;2075647;28;20107;-70
2023/10/04 02:10:44;;;;;;;12.60;6.97;;;;;;;;;;2065407;28;20125;-69
2023/10/04 02:12:05;;;;;;;10.73;6.43;;;;;;;;;;2073065;28;20492;-69
2023/10/04 02:13:28;;;;;;;14.68;7.80;;;;;;;;;;2070681;28;20156;-69
2023/10/04 02:14:53;;;;;;;13.20;6.65;;;;;;;;;;2066436;28;20038;-69
2023/10/04 02:16:19;;;;;;;15.52;6.63;;;;;;;;;;2072680;28;20095;-69
2023/10/04 02:17:41;;;;;;;17.65;7.15;;;;;;;;;;2069299;28;20034;-69
2023/10/04 02:19:02;;;;;;;12.30;6.25;;;;;;;;;;2085387;28;20433;-69
2023/10/04 02:20:24;;;;;;;20.73;8.10;;;;;;;;;;2083824;28;20192;-70
2023/10/04 02:21:45;;;;;;;13.23;6.32;;;;;;;;;;2083689;28;20440;-69
2023/10/04 02:23:07;;;;;;;13.25;6.95;;;;;;;;;;2085554;28;20488;-70
2023/10/04 02:24:28;;;;;;;16.65;7.57;;;;;;;;;;2082119;28;20037;-70
2023/10/04 02:25:49;;;;;;;13.63;6.78;;;;;;;;;;2077045;28;20059;-70
2023/10/04 02:27:11;;;;;;;16.73;7.07;;;;;;;;;;2086990;28;20033;-69
2023/10/04 02:28:33;;;;;;;15.05;7.18;;;;;;;;;;2081680;28;20037;-70
2023/10/04 02:29:54;;;;;;;15.35;7.22;;;;;;;;;;2085652;28;20036;-71
2023/10/04 02:31:15;;;;;;;11.98;6.28;;;;;;;;;;2093121;28;20040;-70
2023/10/04 02:32:36;;;;;;;17.77;6.63;;;;;;;;;;2083848;28;20071;-69
2023/10/04 02:33:57;;;;;;;12.95;5.90;;;;;;;;;;2083459;28;20480;-70
2023/10/04 02:35:27;;;;;;;16.27;7.25;;;;;;;;;;2080340;28;20033;-70
2023/10/04 02:36:48;;;;;;;15.75;6.82;;;;;;;;;;2085225;28;20041;-69
2023/10/04 02:38:16;;;;;;;19.50;6.60;;;;;;;;;;2084993;28;20102;-70
2023/10/04 02:39:37;;;;;;;10.13;5.82;;;;;;;;;;2085685;28;20557;-69
2023/10/04 02:40:59;;;;;;;12.40;5.93;;;;;;;;;;2083784;28;20033;-72
2023/10/04 02:42:21;;;;;;;;;;;;;;;;;;2080443;28;20033;-68
2023/10/04 02:43:42;;;;;;;13.50;6.60;;;;;;;;;;2081437;28;20540;-69
2023/10/04 02:45:07;;;;;;;12.85;6.47;;;;;;;;;;2082669;28;20029;-68
2023/10/04 02:46:28;;;;;;;13.98;6.60;;;;;;;;;;2089567;28;20037;-68
2023/10/04 02:47:49;;;;;;;10.77;5.75;;;;;;;;;;2076021;28;20030;-68
2023/10/04 02:49:10;;;;;;;12.75;6.25;;;;;;;;;;2073812;28;20038;-71
2023/10/04 02:50:32;;;;;;;12.40;6.53;;;;;;;;;;2077243;28;20030;-68
2023/10/04 02:51:54;;;;;;;21.42;7.82;;;;;;;;;;2074693;28;20575;-69
2023/10/04 02:53:20;;;;;;;9.95;6.60;;;;;;;;;;2074677;28;20382;-68
2023/10/04 02:54:41;;;;;;;16.42;7.03;;;;;;;;;;2073649;28;20066;-70
2023/10/04 02:56:06;;;;;;;10.68;5.72;;;;;;;;;;2085816;28;20095;-70
2023/10/04 02:57:30;;;;;;;17.83;6.25;;;;;;;;;;2076780;28;20401;-68
2023/10/04 02:58:51;;;;;;;12.82;7.28;;;;;;;;;;2065185;28;20030;-68
2023/10/04 03:00:16;;;;;;;14.10;7.30;;;;;;;;;;2087449;28;20553;-70
2023/10/04 03:01:37;;;;;;;15.10;7.07;;;;;;;;;;2084432;28;20090;-68
2023/10/04 03:02:58;;;;;;;16.02;6.65;;;;;;;;;;2084864;28;20123;-71
2023/10/04 03:04:19;;;;;;;12.15;5.78;;;;;;;;;;2081391;28;20083;-68
2023/10/04 03:05:40;;;;;;;17.85;6.45;;;;;;;;;;2085975;28;20096;-68
2023/10/04 03:07:01;;;;;;;11.45;6.75;;;;;;;;;;2092254;28;20583;-69
2023/10/04 03:08:27;;;;;;;15.38;6.88;;;;;;;;;;2086222;28;20044;-70
2023/10/04 03:09:47;;;;;;;16.92;7.18;;;;;;;;;;2083857;28;20118;-68
2023/10/04 03:11:11;;;;;;;14.98;7.18;;;;;;;;;;2083921;28;20540;-68
2023/10/04 03:12:32;;;;;;;17.70;7.45;;;;;;;;;;2084372;28;20460;-68
2023/10/04 03:13:53;;;;;;;14.38;6.32;;;;;;;;;;2079965;28;20103;-69
2023/10/04 03:15:14;;;;;;;14.15;6.57;;;;;;;;;;2077517;28;20037;-68
2023/10/04 03:16:35;;;;;;;15.20;6.45;;;;;;;;;;2082429;28;20565;-68
2023/10/04 03:17:57;;;;;;;13.48;6.72;;;;;;;;;;2076475;28;20065;-68
2023/10/04 03:19:18;;;;;;;21.80;7.35;;;;;;;;;;2077723;28;20497;-70
2023/10/04 03:20:45;;;;;;;16.60;7.97;;;;;;;;;;2073874;28;20080;-69
2023/10/04 03:22:06;;;;;;;14.32;7.22;;;;;;;;;;2076257;28;20034;-70
2023/10/04 03:23:32;;;;;;;14.30;7.47;;;;;;;;;;2073464;28;20028;-69
2023/10/04 03:24:54;;;;;;;18.95;7.18;;;;;;;;;;2084041;28;20037;-69
2023/10/04 03:26:14;;;;;;;15.70;6.80;;;;;;;;;;2078978;28;20504;-68
2023/10/04 03:27:35;;;;;;;11.05;5.75;;;;;;;;;;2085367;28;20029;-68
2023/10/04 03:28:56;;;;;;;21.23;6.97;;;;;;;;;;2076567;28;20030;-69
2023/10/04 03:30:17;;;;;;;16.55;8.05;;;;;;;;;;2082772;28;20079;-70
2023/10/04 03:31:39;;;;;;;14.30;6.72;;;;;;;;;;2075193;28;20559;-70
2023/10/04 03:33:00;;;;;;;15.65;7.47;;;;;;;;;;2072893;28;20037;-69
2023/10/04 03:34:22;;;;;;;13.60;6.63;;;;;;;;;;2071692;28;20323;-69
2023/10/04 03:35:44;;;;;;;14.02;7.15;;;;;;;;;;2073685;28;20714;-73
2023/10/04 03:37:08;;;;;;;13.30;7.30;;;;;;;;;;2076263;28;20022;-69
2023/10/04 03:38:33;;;;;;;18.15;7.53;;;;;;;;;;2081274;28;20029;-69
2023/10/04 03:39:54;;;;;;;16.08;6.35;;;;;;;;;;2081237;28;20041;-71
2023/10/04 03:41:16;;;;;;;12.70;6.97;;;;;;;;;;2078064;28;20393;-69
2023/10/04 03:42:38;;;;;;;18.30;6.07;;;;;;;;;;2081299;28;20025;-68
2023/10/04 03:44:00;;;;;;;15.00;6.65;;;;;;;;;;2080357;28;20037;-69
2023/10/04 03:45:23;;;;;;;11.93;6.25;;;;;;;;;;2085314;28;20489;-69
2023/10/04 03:46:43;;;;;;;12.18;6.68;;;;;;;;;;2075119;28;20053;-69
2023/10/04 03:48:05;;;;;;;15.18;6.65;;;;;;;;;;2088747;28;20033;-69
2023/10/04 03:49:26;;;;;;;17.75;7.20;;;;;;;;;;2082903;28;20407;-70
2023/10/04 03:50:48;;;;;;;14.37;7.13;;;;;;;;;;2079216;28;20029;-69
2023/10/04 03:52:10;;;;;;;13.80;6.78;;;;;;;;;;2074434;28;20407;-70
2023/10/04 03:53:31;;;;;;;11.52;6.32;;;;;;;;;;2081850;28;20052;-69
2023/10/04 03:54:52;;;;;;;16.60;7.28;;;;;;;;;;2080238;28;20041;-70
2023/10/04 03:56:16;;;;;;;18.17;7.40;;;;;;;;;;2088802;28;20396;-68
2023/10/04 03:57:42;;;;;;;16.40;6.82;;;;;;;;;;2082701;28;20504;-69
2023/10/04 03:59:03;;;;;;;15.00;7.32;;;;;;;;;;2080427;28;20400;-69
2023/10/04 04:00:24;;;;;;;12.45;7.30;;;;;;;;;;2078808;28;20029;-69
2023/10/04 04:01:45;;;;;;;16.00;6.93;;;;;;;;;;2073233;28;20057;-69
2023/10/04 04:03:07;;;;;;;11.95;6.90;;;;;;;;;;2086877;28;20036;-68
2023/10/04 04:04:27;;;;;;;17.77;7.70;;;;;;;;;;2083967;28;20029;-69
2023/10/04 04:05:50;;;;;;;14.55;7.25;;;;;;;;;;2080269;28;20393;-69
2023/10/04 04:07:11;;;;;;;16.02;7.38;;;;;;;;;;2071654;28;20038;-69
2023/10/04 04:08:33;;;;;;;12.98;6.95;;;;;;;;;;2078951;28;20521;-69
2023/10/04 04:09:53;;;;;;;14.82;7.25;;;;;;;;;;2081305;28;20075;-70
2023/10/04 04:11:15;;;;;;;16.92;7.65;;;;;;;;;;2082470;28;20060;-69
2023/10/04 04:12:36;;;;;;;17.25;8.07;;;;;;;;;;2081354;28;20037;-71
2023/10/04 04:13:57;;;;;;;13.52;6.25;;;;;;;;;;2080377;28;20036;-69
2023/10/04 04:15:18;;;;;;;18.50;7.82;;;;;;;;;;2077908;28;20042;-70
2023/10/04 04:16:39;;;;;;;21.52;8.02;;;;;;;;;;2088394;28;20024;-69
2023/10/04 04:18:06;;;;;;;11.23;6.63;;;;;;;;;;2083426;28;20025;-69
2023/10/04 04:19:27;;;;;;;18.60;8.02;;;;;;;;;;2081294;28;20049;-69
2023/10/04 04:20:48;;;;;;;17.58;7.97;;;;;;;;;;2082745;28;20392;-69
2023/10/04 04:22:09;;;;;;;19.48;8.20;;;;;;;;;;2080507;28;20029;-69
2023/10/04 04:23:31;;;;;;;20.13;7.75;;;;;;;;;;2083932;28;20026;-69
2023/10/04 04:24:52;;;;;;;13.90;7.00;;;;;;;;;;2081904;28;21203;-69
2023/10/04 04:26:14;;;;;;;13.77;6.88;;;;;;;;;;2084292;28;20029;-68
2023/10/04 04:27:34;;;;;;;14.65;7.57;;;;;;;;;;2085353;28;20029;-69
2023/10/04 04:28:55;;;;;;;12.10;6.88;;;;;;;;;;2080487;28;20063;-68
2023/10/04 04:30:19;;;;;;;14.98;8.32;;;;;;;;;;2082176;28;20407;-68
2023/10/04 04:31:40;;;;;;;10.82;8.10;;;;;;;;;;2075725;28;20067;-69
2023/10/04 04:33:06;;;;;;;15.60;7.07;;;;;;;;;;2084511;28;20547;-69
2023/10/04 04:34:29;;;;;;;21.75;10.15;;;;;;;;;;2081315;28;20037;-68
2023/10/04 04:35:52;;;;;;;15.88;7.80;;;;;;;;;;2083071;28;20033;-69
2023/10/04 04:37:14;;;;;;;17.20;7.97;;;;;;;;;;2084983;28;20025;-69
2023/10/04 04:38:38;;;;;;;19.50;8.63;;;;;;;;;;2070435;28;20026;-70
2023/10/04 04:40:00;;;;;;;12.30;7.07;;;;;;;;;;2084482;28;20041;-68
2023/10/04 04:41:29;;;;;;;12.85;7.93;;;;;;;;;;2090463;28;20040;-69
2023/10/04 04:42:50;;;;;;;20.70;8.43;;;;;;;;;;2085558;28;20029;-68
2023/10/04 04:44:19;;;;;;;16.80;6.78;;;;;;;;;;2080365;28;20059;-68
2023/10/04 04:45:48;;;;;;;13.48;6.63;;;;;;;;;;2079768;28;20033;-68
2023/10/04 04:47:10;;;;;;;17.77;8.25;;;;;;;;;;2073178;28;20033;-70
2023/10/04 04:48:35;;;;;;;12.48;6.43;;;;;;;;;;2077740;28;20029;-68
2023/10/04 04:49:56;;;;;;;21.38;7.85;;;;;;;;;;2079027;28;20049;-69
2023/10/04 04:51:18;;;;;;;16.15;7.45;;;;;;;;;;2080905;28;20420;-70
2023/10/04 04:52:41;;;;;;;16.45;6.97;;;;;;;;;;2073691;28;20040;-70
2023/10/04 04:54:02;;;;;;;21.17;8.63;;;;;;;;;;2077389;28;20033;-68
2023/10/04 04:55:26;;;;;;;18.38;7.80;;;;;;;;;;2081030;28;20028;-68
2023/10/04 04:56:47;;;;;;;12.93;7.43;;;;;;;;;;2083101;28;20102;-67
2023/10/04 04:58:08;;;;;;;18.35;7.90;;;;;;;;;;2087623;28;20104;-72
2023/10/04 04:59:29;;;;;;;20.02;8.10;;;;;;;;;;2083441;28;20037;-70
2023/10/04 05:00:55;;;;;;;21.63;8.07;;;;;;;;;;2075994;28;20026;-68
2023/10/04 05:02:16;;;;;;;17.23;7.93;;;;;;;;;;2084088;28;20086;-67
2023/10/04 05:03:41;;;;;;;22.33;8.65;;;;;;;;;;2088810;28;20116;-77
2023/10/04 05:05:03;;;;;;;16.20;8.15;;;;;;;;;;2082493;28;20037;-76
2023/10/04 05:06:25;;;;;;;18.35;7.45;;;;;;;;;;2081490;28;20033;-76
2023/10/04 05:07:47;;;;;;;15.05;6.85;;;;;;;;;;2080626;28;20465;-76
2023/10/04 05:09:10;;;;;;;18.60;8.75;;;;;;;;;;2084911;28;20504;-77
2023/10/04 05:10:37;;;;;;;12.95;7.15;;;;;;;;;;2082579;28;20029;-77
2023/10/04 05:11:58;;;;;;;16.50;7.32;;;;;;;;;;2079740;28;20064;-75
2023/10/04 05:13:22;;;;;;;19.23;8.15;;;;;;;;;;2083675;28;20030;-76
2023/10/04 05:14:43;;;;;;;18.25;7.05;;;;;;;;;;2083169;28;20029;-72
2023/10/04 05:16:07;;;;;;;16.50;8.80;;;;;;;;;;2080088;28;20037;-76
2023/10/04 05:17:28;;;;;;;15.95;8.02;;;;;;;;;;2083573;28;20076;-76
2023/10/04 05:18:49;;;;;;;17.65;8.45;;;;;;;;;;2081227;28;20112;-76
2023/10/04 05:20:14;;;;;;;24.77;8.50;;;;;;;;;;2081975;28;20480;-77
2023/10/04 05:21:36;;;;;;;17.00;8.18;;;;;;;;;;2079082;28;20025;-75
2023/10/04 05:22:57;;;;;;;21.63;8.60;;;;;;;;;;2083002;28;20042;-75
2023/10/04 05:24:18;;;;;;;24.27;8.30;;;;;;;;;;2090767;28;20040;-75
2023/10/04 05:25:39;;;;;;;23.30;8.25;;;;;;;;;;2084053;28;20025;-76
2023/10/04 05:27:01;;;;;;;25.27;9.63;;;;;;;;;;2078459;28;20488;-76
2023/10/04 05:28:22;;;;;;;23.88;9.90;;;;;;;;;;2080855;28;20034;-77
2023/10/04 05:29:44;;;;;;;17.88;8.30;;;;;;;;;;2080551;28;20504;-76
2023/10/04 05:31:05;;;;;;;16.90;7.53;;;;;;;;;;2078332;28;20091;-76
2023/10/04 05:32:26;;;;;;;15.52;7.90;;;;;;;;;;2088083;28;20091;-77
2023/10/04 05:33:47;;;;;;;20.50;7.80;;;;;;;;;;2080576;28;20033;-77
2023/10/04 05:35:12;;;;;;;20.45;8.23;;;;;;;;;;2081632;28;20037;-78
2023/10/04 05:36:34;;;;;;;13.55;7.13;;;;;;;;;;2079636;28;20087;-76
2023/10/04 05:37:55;;;;;;;20.77;6.95;;;;;;;;;;2074938;28;20033;-76
2023/10/04 05:39:17;;;;;;;14.68;7.72;;;;;;;;;;2080578;28;20022;-77
2023/10/04 05:40:39;;;;;;;13.55;7.05;;;;;;;;;;2082299;28;20045;-75
2023/10/04 05:41:59;;;;;;;25.17;7.90;;;;;;;;;;2072350;28;20382;-76
2023/10/04 05:43:20;;;;;;;15.57;8.32;;;;;;;;;;2080694;28;20132;-75
2023/10/04 05:44:41;;;;;;;19.17;7.57;;;;;;;;;;2083225;28;20034;-75
2023/10/04 05:46:04;;;;;;;13.00;7.53;;;;;;;;;;2081459;28;20032;-77
2023/10/04 05:47:25;;;;;;;15.68;7.32;;;;;;;;;;2081114;28;20026;-74
2023/10/04 05:48:46;;;;;;;17.75;7.60;;;;;;;;;;2082878;28;20401;-76
2023/10/04 05:50:13;;;;;;;18.20;7.88;;;;;;;;;;2081648;28;20041;-77
2023/10/04 05:51:34;;;;;;;18.27;7.68;;;;;;;;;;2079171;28;20041;-77
2023/10/04 05:52:58;;;;;;;18.42;7.15;;;;;;;;;;2090449;28;20487;-76
2023/10/04 05:54:19;;;;;;;15.93;7.30;;;;;;;;;;2090009;28;20263;-76
2023/10/04 05:55:40;;;;;;;14.63;7.65;;;;;;;;;;2084665;28;20373;-73
2023/10/04 05:57:02;;;;;;;24.63;7.80;;;;;;;;;;2081652;28;20029;-76
2023/10/04 05:58:25;;;;;;;16.52;8.00;;;;;;;;;;2089512;28;20022;-76
2023/10/04 05:59:45;;;;;;;18.20;7.75;;;;;;;;;;2086087;28;20037;-76
2023/10/04 06:01:09;;;;;;;18.60;6.70;;;;;;;;;;2082479;28;20041;-78
2023/10/04 06:02:30;;;;;;;20.50;7.43;;;;;;;;;;2082093;28;20064;-77
2023/10/04 06:03:51;;;;;;;14.00;8.13;;;;;;;;;;2080955;28;20348;-77
2023/10/04 06:05:14;;;;;;;19.13;7.85;;;;;;;;;;2084438;28;20401;-76
2023/10/04 06:06:35;;;;;;;18.98;7.80;;;;;;;;;;2080910;28;20042;-77
2023/10/04 06:07:56;;;;;;;19.55;7.38;;;;;;;;;;2073884;28;20038;-76
2023/10/04 06:09:28;;;;;;;17.85;7.93;;;;;;;;;;2080295;28;20037;-76
2023/10/04 06:10:51;;;;;;;15.52;7.47;;;;;;;;;;2081035;28;20037;-77
2023/10/04 06:12:12;;;;;;;13.18;7.32;;;;;;;;;;2089800;28;20029;-77
2023/10/04 06:13:34;;;;;;;18.33;7.68;;;;;;;;;;2084005;28;20048;-76
2023/10/04 06:14:55;;;;;;;;;;;;;;;;;;2094423;28;20032;-73
2023/10/04 06:16:20;;;;;;;12.90;8.35;;;;;;;;;;2076243;28;19905;-75
2023/10/04 06:17:44;;;;;;;13.57;7.47;;;;;;;;;;2073932;28;20030;-74
2023/10/04 06:19:05;;;;;;;18.88;6.85;;;;;;;;;;2087443;28;20045;-73
2023/10/04 06:20:33;;;;;;;24.83;8.52;;;;;;;;;;2081298;28;20042;-72
2023/10/04 06:21:53;;;;;;;21.77;7.68;;;;;;;;;;2080142;28;20044;-72
2023/10/04 06:23:16;;;;;;;19.20;8.00;;;;;;;;;;2081974;28;20041;-72
2023/10/04 06:24:37;;;;;;;15.35;7.53;;;;;;;;;;2083494;28;20492;-73
2023/10/04 06:25:58;;;;;;;16.48;7.45;;;;;;;;;;2081088;28;20033;-74
2023/10/04 06:27:19;;;;;;;17.17;7.32;;;;;;;;;;2081341;28;20037;-72
2023/10/04 06:28:40;;;;;;;17.05;7.53;;;;;;;;;;2088966;28;20029;-72
2023/10/04 06:30:01;;;;;;;13.52;7.13;;;;;;;;;;2077271;28;20038;-73
2023/10/04 06:31:22;;;;;;;14.98;7.25;;;;;;;;;;2066023;28;20038;-74
2023/10/04 06:32:43;;;;;;;13.70;7.15;;;;;;;;;;2071972;28;20041;-74
2023/10/04 06:34:04;;;;;;;17.88;7.93;;;;;;;;;;2083015;28;20048;-73
2023/10/04 06:35:27;;;;;;;20.58;8.48;;;;;;;;;;2074948;28;20034;-73
2023/10/04 06:36:49;;;;;;;;;;;;;;;;;;2082073;28;20046;-74
2023/10/04 06:38:10;;;;;;;16.30;7.65;;;;;;;;;;2073993;28;19906;-73
2023/10/04 06:39:31;;;;;;;19.55;8.25;;;;;;;;;;2073978;28;20430;-73
2023/10/04 06:40:52;;;;;;;12.23;6.85;;;;;;;;;;2080401;28;20033;-74
2023/10/04 06:42:13;;;;;;;18.75;7.28;;;;;;;;;;2075751;28;20433;-74
2023/10/04 06:43:35;;;;;;;16.08;6.95;;;;;;;;;;2072941;28;20030;-74
2023/10/04 06:44:56;;;;;;;20.98;7.53;;;;;;;;;;2072570;28;20068;-74
2023/10/04 06:46:17;;;;;;;12.68;6.90;;;;;;;;;;2081305;28;20488;-74
2023/10/04 06:47:49;;;;;;;14.70;7.05;;;;;;;;;;2082634;28;20361;-75
2023/10/04 06:49:10;;;;;;;21.83;8.38;;;;;;;;;;2073492;28;20029;-74
2023/10/04 06:50:35;;;;;;;20.45;7.78;;;;;;;;;;2081131;28;20037;-74
2023/10/04 06:51:57;;;;;;;16.90;7.68;;;;;;;;;;2081427;28;20477;-74
2023/10/04 06:53:18;;;;;;;22.25;8.15;;;;;;;;;;2081585;28;20040;-73
2023/10/04 06:54:40;;;;;;;17.38;7.57;;;;;;;;;;2081676;28;20029;-74
2023/10/04 06:56:01;;;;;;;14.10;6.95;;;;;;;;;;2073413;28;20389;-74
2023/10/04 06:57:22;;;;;;;11.48;7.05;;;;;;;;;;2072363;28;20354;-74
2023/10/04 06:58:43;;;;;;;15.38;7.55;;;;;;;;;;2085251;28;20029;-74
2023/10/04 07:00:13;;;;;;;23.27;7.25;;;;;;;;;;2082658;28;20038;-74
2023/10/04 07:01:34;;;;;;;19.45;8.30;;;;;;;;;;2074797;28;20022;-73
2023/10/04 07:02:58;;;;;;;16.67;7.32;;;;;;;;;;2077858;28;20041;-75
2023/10/04 07:04:18;;;;;;;18.63;7.07;;;;;;;;;;2081502;28;20026;-74
2023/10/04 07:05:40;;;;;;;14.80;7.15;;;;;;;;;;2080873;28;20026;-74
2023/10/04 07:07:01;;;;;;;15.95;6.60;;;;;;;;;;2084206;28;20037;-74
2023/10/04 07:08:24;;;;;;;17.63;7.43;;;;;;;;;;2081404;28;20060;-76
2023/10/04 07:09:46;;;;;;;18.25;7.00;;;;;;;;;;2086039;28;20464;-75
2023/10/04 07:11:07;;;;;;;17.73;7.20;;;;;;;;;;2075492;28;20022;-74
2023/10/04 07:12:31;;;;;;;14.63;6.80;;;;;;;;;;2085292;28;20087;-74
2023/10/04 07:13:52;;;;;;;17.30;7.07;;;;;;;;;;2072726;28;20092;-75
2023/10/04 07:15:14;;;;;;;21.10;7.10;;;;;;;;;;2074362;28;20026;-74
2023/10/04 07:16:34;;;;;;;16.60;7.32;;;;;;;;;;2078731;28;20397;-74
2023/10/04 07:17:55;;;;;;;21.23;7.13;;;;;;;;;;2080247;28;20034;-74
2023/10/04 07:19:16;;;;;;;14.40;6.07;;;;;;;;;;2082127;28;20402;-74
2023/10/04 07:20:38;;;;;;;21.33;7.47;;;;;;;;;;2076821;28;20038;-74
2023/10/04 07:21:59;;;;;;;16.42;6.85;;;;;;;;;;2071835;28;20033;-74
2023/10/04 07:23:20;;;;;;;15.23;7.38;;;;;;;;;;2076753;28;20030;-74
2023/10/04 07:24:41;;;;;;;19.65;6.88;;;;;;;;;;2075296;28;20026;-69
2023/10/04 07:26:03;;;;;;;13.60;6.47;;;;;;;;;;2075665;28;20145;-69
2023/10/04 07:27:24;;;;;;;22.90;7.18;;;;;;;;;;2072975;28;20026;-70
2023/10/04 07:28:46;;;;;;;19.60;6.88;;;;;;;;;;2079814;28;20471;-69
2023/10/04 07:30:07;;;;;;;14.93;6.53;;;;;;;;;;2079772;28;20092;-69
2023/10/04 07:31:28;;;;;;;15.73;6.63;;;;;;;;;;2065289;28;20027;-70
2023/10/04 07:32:49;;;;;;;17.63;7.10;;;;;;;;;;2065209;28;20057;-70
2023/10/04 07:34:10;;;;;;;15.93;6.20;;;;;;;;;;2071379;28;20029;-72
2023/10/04 07:35:32;;;;;;;12.65;6.25;;;;;;;;;;2072496;28;20034;-69
2023/10/04 07:36:53;;;;;;;15.73;6.07;;;;;;;;;;2062700;28;20050;-70
2023/10/04 07:38:13;;;;;;;13.23;5.85;;;;;;;;;;2076931;28;20041;-69
2023/10/04 07:39:35;;;;;;;14.68;6.07;;;;;;;;;;2068126;28;20026;-69
2023/10/04 07:40:56;;;;;;;19.50;5.82;;;;;;;;;;2078513;28;20084;-71
2023/10/04 07:42:17;;;;;;;15.30;6.28;;;;;;;;;;2075127;28;20026;-70
2023/10/04 07:43:39;;;;;;;17.58;7.30;;;;;;;;;;2065914;28;20027;-72
2023/10/04 07:45:00;;;;;;;20.20;6.40;;;;;;;;;;2067128;28;20034;-71
2023/10/04 07:46:24;;;;;;;15.50;5.85;;;;;;;;;;2078750;28;20033;-71
2023/10/04 07:47:45;;;;;;;15.13;8.43;;;;;;;;;;2073348;28;20149;-71
2023/10/04 07:49:06;;;;;;;17.73;6.45;;;;;;;;;;2080237;28;20346;-71
2023/10/04 07:50:28;;;;;;;12.90;6.05;;;;;;;;;;2079096;28;20037;-70
2023/10/04 07:51:49;;;;;;;20.98;6.18;;;;;;;;;;2088170;28;20428;-71
2023/10/04 07:53:10;;;;;;;16.33;6.57;;;;;;;;;;2083880;28;20025;-71
2023/10/04 07:54:33;;;;;;;18.00;6.45;;;;;;;;;;2088742;28;20040;-69
2023/10/04 07:55:53;;;;;;;13.43;5.32;;;;;;;;;;2091384;28;20492;-70
2023/10/04 07:57:14;;;;;;;20.65;6.97;;;;;;;;;;2082367;28;20028;-70
2023/10/04 07:58:36;;;;;;;13.90;5.35;;;;;;;;;;2085266;28;20021;-70
2023/10/04 07:59:57;;;;;;;12.70;5.85;;;;;;;;;;2088310;28;20039;-70
2023/10/04 08:01:18;;;;;;;16.33;5.97;;;;;;;;;;2083613;28;20025;-70
2023/10/04 08:02:51;;;;;;;16.23;6.28;;;;;;;;;;2081413;28;20029;-70
2023/10/04 08:04:12;;;;;;;14.23;6.00;;;;;;;;;;2080188;28;20038;-70
2023/10/04 08:05:34;;;;;;;20.33;5.50;;;;;;;;;;2085908;28;20365;-70